Terminal Aerodrome Forecast
Issued by NWS North Platte, NE

Home | Current Version | Previous Version | Graphics & Text | Print | Product List | Glossary Off
Versions: 1 2 3 4 5 6 7 8 9 10 11 12 13 14 15 16 17 18 19 20 21 22 23 24

000
FTUS43 KLBF 281100
TAFVTN
TAF
KVTN 281128Z 2812/0112 20011KT P6SM FEW035 SCT120
     FM281800 24010KT P6SM SCT050
     FM282100 27005KT P6SM SCT050
     FM010000 31005KT P6SM SCT080=

USA.gov is the U.S. government's official web portal to all federal, state and local government web resources and services.